sensor_id;sensor_type;location;lat;lon;timestamp;P1;durP1;ratioP1;P2;durP2;ratioP2
25231;SDS011;13176;51.140;6.290;2023-12-29T00:00:19;17.42;;;14.68;;
25231;SDS011;13176;51.140;6.290;2023-12-29T00:02:46;17.25;;;15.93;;
25231;SDS011;13176;51.140;6.290;2023-12-29T00:05:12;19.05;;;17.70;;
25231;SDS011;13176;51.140;6.290;2023-12-29T00:07:38;20.83;;;19.55;;
25231;SDS011;13176;51.140;6.290;2023-12-29T00:10:05;21.25;;;19.67;;
25231;SDS011;13176;51.140;6.290;2023-12-29T00:12:32;17.23;;;15.85;;
25231;SDS011;13176;51.140;6.290;2023-12-29T00:14:58;21.30;;;19.83;;
25231;SDS011;13176;51.140;6.290;2023-12-29T00:17:25;17.73;;;16.52;;
25231;SDS011;13176;51.140;6.290;2023-12-29T00:19:51;19.42;;;18.33;;
25231;SDS011;13176;51.140;6.290;2023-12-29T00:22:19;21.27;;;19.77;;
25231;SDS011;13176;51.140;6.290;2023-12-29T00:24:47;20.75;;;19.02;;
25231;SDS011;13176;51.140;6.290;2023-12-29T00:27:14;20.52;;;19.05;;
25231;SDS011;13176;51.140;6.290;2023-12-29T00:29:40;20.15;;;18.63;;
25231;SDS011;13176;51.140;6.290;2023-12-29T00:32:06;17.55;;;16.38;;
25231;SDS011;13176;51.140;6.290;2023-12-29T00:34:34;21.13;;;19.33;;
25231;SDS011;13176;51.140;6.290;2023-12-29T00:37:00;17.85;;;16.58;;
25231;SDS011;13176;51.140;6.290;2023-12-29T00:39:27;19.75;;;18.15;;
25231;SDS011;13176;51.140;6.290;2023-12-29T00:41:58;20.48;;;18.95;;
25231;SDS011;13176;51.140;6.290;2023-12-29T00:44:24;19.05;;;17.52;;
25231;SDS011;13176;51.140;6.290;2023-12-29T00:46:51;17.05;;;15.50;;
25231;SDS011;13176;51.140;6.290;2023-12-29T00:49:17;19.98;;;18.23;;
25231;SDS011;13176;51.140;6.290;2023-12-29T00:51:44;16.88;;;15.40;;
25231;SDS011;13176;51.140;6.290;2023-12-29T00:54:11;18.55;;;16.77;;
25231;SDS011;13176;51.140;6.290;2023-12-29T00:56:37;17.45;;;16.38;;
25231;SDS011;13176;51.140;6.290;2023-12-29T00:59:04;21.65;;;20.10;;
25231;SDS011;13176;51.140;6.290;2023-12-29T01:01:34;21.73;;;20.20;;
25231;SDS011;13176;51.140;6.290;2023-12-29T01:04:02;18.67;;;17.33;;
25231;SDS011;13176;51.140;6.290;2023-12-29T01:06:29;19.60;;;18.17;;
25231;SDS011;13176;51.140;6.290;2023-12-29T01:08:55;15.40;;;14.15;;
25231;SDS011;13176;51.140;6.290;2023-12-29T01:11:22;17.23;;;16.02;;
25231;SDS011;13176;51.140;6.290;2023-12-29T01:13:48;14.98;;;14.15;;
25231;SDS011;13176;51.140;6.290;2023-12-29T01:16:15;27.27;;;25.38;;
25231;SDS011;13176;51.140;6.290;2023-12-29T01:18:41;17.45;;;16.20;;
25231;SDS011;13176;51.140;6.290;2023-12-29T01:21:08;17.42;;;15.93;;
25231;SDS011;13176;51.140;6.290;2023-12-29T01:23:35;17.23;;;15.80;;
25231;SDS011;13176;51.140;6.290;2023-12-29T01:26:01;18.42;;;17.15;;
25231;SDS011;13176;51.140;6.290;2023-12-29T01:28:28;17.73;;;16.52;;
25231;SDS011;13176;51.140;6.290;2023-12-29T01:30:54;18.20;;;16.77;;
25231;SDS011;13176;51.140;6.290;2023-12-29T01:33:21;18.90;;;17.50;;
25231;SDS011;13176;51.140;6.290;2023-12-29T01:35:48;18.58;;;17.15;;
25231;SDS011;13176;51.140;6.290;2023-12-29T01:38:14;19.63;;;18.00;;
25231;SDS011;13176;51.140;6.290;2023-12-29T01:40:47;20.05;;;18.02;;
25231;SDS011;13176;51.140;6.290;2023-12-29T01:43:13;18.80;;;17.40;;
25231;SDS011;13176;51.140;6.290;2023-12-29T01:45:40;20.70;;;18.90;;
25231;SDS011;13176;51.140;6.290;2023-12-29T01:48:10;18.75;;;17.35;;
25231;SDS011;13176;51.140;6.290;2023-12-29T01:50:36;19.27;;;17.85;;
25231;SDS011;13176;51.140;6.290;2023-12-29T01:53:03;20.20;;;18.65;;
25231;SDS011;13176;51.140;6.290;2023-12-29T01:55:30;19.70;;;17.95;;
25231;SDS011;13176;51.140;6.290;2023-12-29T01:57:57;20.63;;;19.05;;
25231;SDS011;13176;51.140;6.290;2023-12-29T02:00:25;24.58;;;22.83;;
25231;SDS011;13176;51.140;6.290;2023-12-29T02:02:52;27.98;;;26.10;;
25231;SDS011;13176;51.140;6.290;2023-12-29T02:05:19;26.27;;;24.30;;
25231;SDS011;13176;51.140;6.290;2023-12-29T02:07:50;23.85;;;21.90;;
25231;SDS011;13176;51.140;6.290;2023-12-29T02:10:17;44.13;;;39.42;;
25231;SDS011;13176;51.140;6.290;2023-12-29T02:12:44;22.52;;;20.60;;
25231;SDS011;13176;51.140;6.290;2023-12-29T02:15:14;28.77;;;26.83;;
25231;SDS011;13176;51.140;6.290;2023-12-29T02:17:41;28.80;;;26.63;;
25231;SDS011;13176;51.140;6.290;2023-12-29T02:20:12;29.25;;;26.92;;
25231;SDS011;13176;51.140;6.290;2023-12-29T02:22:39;27.50;;;25.58;;
25231;SDS011;13176;51.140;6.290;2023-12-29T02:25:06;26.08;;;23.98;;
25231;SDS011;13176;51.140;6.290;2023-12-29T02:27:40;26.48;;;24.30;;
25231;SDS011;13176;51.140;6.290;2023-12-29T02:30:56;25.38;;;23.80;;
25231;SDS011;13176;51.140;6.290;2023-12-29T02:33:10;26.00;;;24.27;;
25231;SDS011;13176;51.140;6.290;2023-12-29T02:35:41;26.77;;;24.75;;
25231;SDS011;13176;51.140;6.290;2023-12-29T02:38:09;25.33;;;23.65;;
25231;SDS011;13176;51.140;6.290;2023-12-29T02:40:37;26.83;;;24.75;;
25231;SDS011;13176;51.140;6.290;2023-12-29T02:43:04;27.17;;;25.27;;
25231;SDS011;13176;51.140;6.290;2023-12-29T02:45:30;27.50;;;25.73;;
25231;SDS011;13176;51.140;6.290;2023-12-29T02:47:57;28.52;;;26.75;;
25231;SDS011;13176;51.140;6.290;2023-12-29T02:50:24;28.65;;;26.83;;
25231;SDS011;13176;51.140;6.290;2023-12-29T02:52:51;29.00;;;27.17;;
25231;SDS011;13176;51.140;6.290;2023-12-29T02:55:17;29.88;;;27.98;;
25231;SDS011;13176;51.140;6.290;2023-12-29T02:57:44;29.80;;;27.75;;
25231;SDS011;13176;51.140;6.290;2023-12-29T03:00:11;27.73;;;25.88;;
25231;SDS011;13176;51.140;6.290;2023-12-29T03:02:37;28.92;;;26.75;;
25231;SDS011;13176;51.140;6.290;2023-12-29T03:05:04;27.90;;;25.92;;
25231;SDS011;13176;51.140;6.290;2023-12-29T03:07:31;26.60;;;24.40;;
25231;SDS011;13176;51.140;6.290;2023-12-29T03:09:57;24.67;;;22.95;;
25231;SDS011;13176;51.140;6.290;2023-12-29T03:12:24;24.88;;;23.27;;
25231;SDS011;13176;51.140;6.290;2023-12-29T03:14:51;25.70;;;23.75;;
25231;SDS011;13176;51.140;6.290;2023-12-29T03:17:17;23.67;;;21.55;;
25231;SDS011;13176;51.140;6.290;2023-12-29T03:19:43;27.48;;;25.33;;
25231;SDS011;13176;51.140;6.290;2023-12-29T03:22:10;26.10;;;24.38;;
25231;SDS011;13176;51.140;6.290;2023-12-29T03:24:40;26.70;;;24.92;;
25231;SDS011;13176;51.140;6.290;2023-12-29T03:27:08;36.03;;;32.75;;
25231;SDS011;13176;51.140;6.290;2023-12-29T03:29:35;27.38;;;25.55;;
25231;SDS011;13176;51.140;6.290;2023-12-29T03:32:01;24.63;;;23.13;;
25231;SDS011;13176;51.140;6.290;2023-12-29T03:34:28;29.90;;;27.73;;
25231;SDS011;13176;51.140;6.290;2023-12-29T03:36:55;29.65;;;27.38;;
25231;SDS011;13176;51.140;6.290;2023-12-29T03:39:21;38.05;;;35.65;;
25231;SDS011;13176;51.140;6.290;2023-12-29T03:41:48;31.52;;;29.52;;
25231;SDS011;13176;51.140;6.290;2023-12-29T03:44:14;27.85;;;25.95;;
25231;SDS011;13176;51.140;6.290;2023-12-29T03:46:41;30.08;;;28.17;;
25231;SDS011;13176;51.140;6.290;2023-12-29T03:49:07;31.40;;;29.55;;
25231;SDS011;13176;51.140;6.290;2023-12-29T03:51:34;30.67;;;28.48;;
25231;SDS011;13176;51.140;6.290;2023-12-29T03:54:01;26.25;;;24.50;;
25231;SDS011;13176;51.140;6.290;2023-12-29T03:56:28;29.48;;;27.05;;
25231;SDS011;13176;51.140;6.290;2023-12-29T03:58:54;25.58;;;23.77;;
25231;SDS011;13176;51.140;6.290;2023-12-29T04:01:20;24.33;;;22.25;;
25231;SDS011;13176;51.140;6.290;2023-12-29T04:03:47;22.15;;;20.42;;
25231;SDS011;13176;51.140;6.290;2023-12-29T04:06:13;23.35;;;21.48;;
25231;SDS011;13176;51.140;6.290;2023-12-29T04:08:40;22.55;;;20.92;;
25231;SDS011;13176;51.140;6.290;2023-12-29T04:11:07;25.83;;;24.05;;
25231;SDS011;13176;51.140;6.290;2023-12-29T04:13:33;21.33;;;19.88;;
25231;SDS011;13176;51.140;6.290;2023-12-29T04:16:00;21.40;;;19.83;;
25231;SDS011;13176;51.140;6.290;2023-12-29T04:18:26;24.00;;;22.50;;
25231;SDS011;13176;51.140;6.290;2023-12-29T04:20:53;25.73;;;23.63;;
25231;SDS011;13176;51.140;6.290;2023-12-29T04:23:19;25.27;;;23.58;;
25231;SDS011;13176;51.140;6.290;2023-12-29T04:25:46;28.15;;;26.40;;
25231;SDS011;13176;51.140;6.290;2023-12-29T04:28:12;26.85;;;25.05;;
25231;SDS011;13176;51.140;6.290;2023-12-29T04:30:39;25.40;;;23.50;;
25231;SDS011;13176;51.140;6.290;2023-12-29T04:33:05;25.98;;;24.27;;
25231;SDS011;13176;51.140;6.290;2023-12-29T04:35:32;28.63;;;26.42;;
25231;SDS011;13176;51.140;6.290;2023-12-29T04:37:58;27.42;;;25.27;;
25231;SDS011;13176;51.140;6.290;2023-12-29T04:40:25;29.45;;;27.25;;
25231;SDS011;13176;51.140;6.290;2023-12-29T04:42:52;30.15;;;27.85;;
25231;SDS011;13176;51.140;6.290;2023-12-29T04:45:18;31.52;;;28.75;;
25231;SDS011;13176;51.140;6.290;2023-12-29T04:47:44;30.92;;;28.67;;
25231;SDS011;13176;51.140;6.290;2023-12-29T04:50:11;31.08;;;28.73;;
25231;SDS011;13176;51.140;6.290;2023-12-29T04:52:37;31.60;;;29.48;;
25231;SDS011;13176;51.140;6.290;2023-12-29T04:55:04;40.50;;;37.13;;
25231;SDS011;13176;51.140;6.290;2023-12-29T04:57:31;29.35;;;27.20;;
25231;SDS011;13176;51.140;6.290;2023-12-29T04:59:57;26.65;;;25.00;;
25231;SDS011;13176;51.140;6.290;2023-12-29T05:02:24;29.23;;;27.20;;
25231;SDS011;13176;51.140;6.290;2023-12-29T05:04:50;31.35;;;29.25;;
25231;SDS011;13176;51.140;6.290;2023-12-29T05:07:16;28.35;;;26.45;;
25231;SDS011;13176;51.140;6.290;2023-12-29T05:09:43;24.98;;;22.92;;
25231;SDS011;13176;51.140;6.290;2023-12-29T05:12:10;29.70;;;27.58;;
25231;SDS011;13176;51.140;6.290;2023-12-29T05:14:36;25.67;;;24.00;;
25231;SDS011;13176;51.140;6.290;2023-12-29T05:17:03;28.80;;;26.85;;
25231;SDS011;13176;51.140;6.290;2023-12-29T05:19:29;27.42;;;25.48;;
25231;SDS011;13176;51.140;6.290;2023-12-29T05:21:56;25.85;;;24.15;;
25231;SDS011;13176;51.140;6.290;2023-12-29T05:24:24;26.55;;;24.52;;
25231;SDS011;13176;51.140;6.290;2023-12-29T05:26:50;27.55;;;25.35;;
25231;SDS011;13176;51.140;6.290;2023-12-29T05:29:17;27.27;;;25.48;;
25231;SDS011;13176;51.140;6.290;2023-12-29T05:31:43;27.20;;;25.50;;
25231;SDS011;13176;51.140;6.290;2023-12-29T05:34:10;27.45;;;25.58;;
25231;SDS011;13176;51.140;6.290;2023-12-29T05:36:37;28.42;;;26.33;;
25231;SDS011;13176;51.140;6.290;2023-12-29T05:39:03;27.60;;;25.55;;
25231;SDS011;13176;51.140;6.290;2023-12-29T05:41:31;26.80;;;25.08;;
25231;SDS011;13176;51.140;6.290;2023-12-29T05:43:57;29.85;;;27.85;;
25231;SDS011;13176;51.140;6.290;2023-12-29T05:46:24;27.13;;;25.30;;
25231;SDS011;13176;51.140;6.290;2023-12-29T05:48:50;27.30;;;25.55;;
25231;SDS011;13176;51.140;6.290;2023-12-29T05:51:18;27.08;;;25.15;;
25231;SDS011;13176;51.140;6.290;2023-12-29T05:53:45;26.17;;;24.23;;
25231;SDS011;13176;51.140;6.290;2023-12-29T05:56:12;29.40;;;27.48;;
25231;SDS011;13176;51.140;6.290;2023-12-29T05:58:42;27.02;;;25.27;;
25231;SDS011;13176;51.140;6.290;2023-12-29T06:01:09;29.85;;;27.75;;
25231;SDS011;13176;51.140;6.290;2023-12-29T06:03:37;26.38;;;24.40;;
25231;SDS011;13176;51.140;6.290;2023-12-29T06:06:03;25.80;;;24.13;;
25231;SDS011;13176;51.140;6.290;2023-12-29T06:08:30;27.45;;;25.23;;
25231;SDS011;13176;51.140;6.290;2023-12-29T06:10:56;26.45;;;24.83;;
25231;SDS011;13176;51.140;6.290;2023-12-29T06:13:23;25.67;;;23.85;;
25231;SDS011;13176;51.140;6.290;2023-12-29T06:15:49;26.67;;;25.00;;
25231;SDS011;13176;51.140;6.290;2023-12-29T06:18:16;26.40;;;24.90;;
25231;SDS011;13176;51.140;6.290;2023-12-29T06:20:42;26.45;;;24.73;;
25231;SDS011;13176;51.140;6.290;2023-12-29T06:23:09;28.08;;;25.85;;
25231;SDS011;13176;51.140;6.290;2023-12-29T06:25:36;25.98;;;23.60;;
25231;SDS011;13176;51.140;6.290;2023-12-29T06:28:05;28.95;;;26.75;;
25231;SDS011;13176;51.140;6.290;2023-12-29T06:30:33;26.60;;;24.67;;
25231;SDS011;13176;51.140;6.290;2023-12-29T06:32:59;27.40;;;25.80;;
25231;SDS011;13176;51.140;6.290;2023-12-29T06:35:26;26.88;;;25.33;;
25231;SDS011;13176;51.140;6.290;2023-12-29T06:37:52;25.38;;;23.75;;
25231;SDS011;13176;51.140;6.290;2023-12-29T06:40:19;27.10;;;25.10;;
25231;SDS011;13176;51.140;6.290;2023-12-29T06:42:45;25.95;;;24.05;;
25231;SDS011;13176;51.140;6.290;2023-12-29T06:45:12;26.90;;;24.75;;
25231;SDS011;13176;51.140;6.290;2023-12-29T06:47:38;27.75;;;25.75;;
25231;SDS011;13176;51.140;6.290;2023-12-29T06:50:05;28.55;;;26.75;;
25231;SDS011;13176;51.140;6.290;2023-12-29T06:52:33;25.02;;;23.30;;
25231;SDS011;13176;51.140;6.290;2023-12-29T06:55:01;27.75;;;25.90;;
25231;SDS011;13176;51.140;6.290;2023-12-29T06:57:28;26.73;;;24.98;;
25231;SDS011;13176;51.140;6.290;2023-12-29T06:59:54;24.95;;;23.20;;
25231;SDS011;13176;51.140;6.290;2023-12-29T07:02:21;23.65;;;21.80;;
25231;SDS011;13176;51.140;6.290;2023-12-29T07:04:48;22.85;;;21.02;;
25231;SDS011;13176;51.140;6.290;2023-12-29T07:07:14;23.88;;;22.33;;
25231;SDS011;13176;51.140;6.290;2023-12-29T07:09:41;23.13;;;21.58;;
25231;SDS011;13176;51.140;6.290;2023-12-29T07:12:08;25.67;;;23.52;;
25231;SDS011;13176;51.140;6.290;2023-12-29T07:14:34;21.38;;;19.85;;
25231;SDS011;13176;51.140;6.290;2023-12-29T07:17:04;19.20;;;17.98;;
25231;SDS011;13176;51.140;6.290;2023-12-29T07:19:30;29.75;;;27.55;;
25231;SDS011;13176;51.140;6.290;2023-12-29T07:22:04;20.05;;;18.42;;
25231;SDS011;13176;51.140;6.290;2023-12-29T07:24:32;22.88;;;21.15;;
25231;SDS011;13176;51.140;6.290;2023-12-29T07:26:59;23.63;;;21.70;;
25231;SDS011;13176;51.140;6.290;2023-12-29T07:29:25;25.73;;;23.63;;
25231;SDS011;13176;51.140;6.290;2023-12-29T07:31:52;28.55;;;26.33;;
25231;SDS011;13176;51.140;6.290;2023-12-29T07:34:19;35.35;;;32.22;;
25231;SDS011;13176;51.140;6.290;2023-12-29T07:36:46;34.67;;;32.15;;
25231;SDS011;13176;51.140;6.290;2023-12-29T07:39:13;34.78;;;32.58;;
25231;SDS011;13176;51.140;6.290;2023-12-29T07:41:40;33.67;;;31.20;;
25231;SDS011;13176;51.140;6.290;2023-12-29T07:44:10;32.63;;;30.38;;
25231;SDS011;13176;51.140;6.290;2023-12-29T07:46:38;37.08;;;34.53;;
25231;SDS011;13176;51.140;6.290;2023-12-29T07:49:06;39.65;;;36.72;;
25231;SDS011;13176;51.140;6.290;2023-12-29T07:51:33;49.35;;;46.25;;
25231;SDS011;13176;51.140;6.290;2023-12-29T07:54:00;55.03;;;51.47;;
25231;SDS011;13176;51.140;6.290;2023-12-29T07:56:26;59.30;;;55.92;;
25231;SDS011;13176;51.140;6.290;2023-12-29T07:58:53;61.00;;;57.08;;
25231;SDS011;13176;51.140;6.290;2023-12-29T08:01:19;49.00;;;45.30;;
25231;SDS011;13176;51.140;6.290;2023-12-29T08:03:46;48.60;;;45.28;;
25231;SDS011;13176;51.140;6.290;2023-12-29T08:06:12;51.55;;;48.15;;
25231;SDS011;13176;51.140;6.290;2023-12-29T08:08:39;50.38;;;47.20;;
25231;SDS011;13176;51.140;6.290;2023-12-29T08:11:12;50.15;;;47.15;;
25231;SDS011;13176;51.140;6.290;2023-12-29T08:13:39;54.85;;;50.85;;
25231;SDS011;13176;51.140;6.290;2023-12-29T08:16:06;53.28;;;50.15;;
25231;SDS011;13176;51.140;6.290;2023-12-29T08:18:33;111.20;;;99.70;;
25231;SDS011;13176;51.140;6.290;2023-12-29T08:21:00;49.60;;;46.33;;
25231;SDS011;13176;51.140;6.290;2023-12-29T08:23:27;109.15;;;101.32;;
25231;SDS011;13176;51.140;6.290;2023-12-29T08:25:53;60.90;;;57.22;;
25231;SDS011;13176;51.140;6.290;2023-12-29T08:28:23;56.53;;;52.90;;
25231;SDS011;13176;51.140;6.290;2023-12-29T08:30:49;69.88;;;65.68;;
25231;SDS011;13176;51.140;6.290;2023-12-29T08:33:16;66.28;;;62.05;;
25231;SDS011;13176;51.140;6.290;2023-12-29T08:35:43;83.43;;;78.38;;
25231;SDS011;13176;51.140;6.290;2023-12-29T08:38:10;87.85;;;82.50;;
25231;SDS011;13176;51.140;6.290;2023-12-29T08:40:36;63.70;;;60.03;;
25231;SDS011;13176;51.140;6.290;2023-12-29T08:43:03;70.55;;;66.53;;
25231;SDS011;13176;51.140;6.290;2023-12-29T08:45:30;97.97;;;91.63;;
25231;SDS011;13176;51.140;6.290;2023-12-29T08:47:56;67.68;;;63.72;;
25231;SDS011;13176;51.140;6.290;2023-12-29T08:50:23;73.63;;;69.40;;
25231;SDS011;13176;51.140;6.290;2023-12-29T08:52:49;70.45;;;66.13;;
25231;SDS011;13176;51.140;6.290;2023-12-29T08:55:15;70.82;;;66.57;;
25231;SDS011;13176;51.140;6.290;2023-12-29T08:57:42;67.80;;;63.70;;
25231;SDS011;13176;51.140;6.290;2023-12-29T09:00:09;247.63;;;225.18;;
25231;SDS011;13176;51.140;6.290;2023-12-29T09:02:35;79.07;;;74.55;;
25231;SDS011;13176;51.140;6.290;2023-12-29T09:05:02;168.20;;;156.85;;
25231;SDS011;13176;51.140;6.290;2023-12-29T09:07:29;80.72;;;76.15;;
25231;SDS011;13176;51.140;6.290;2023-12-29T09:09:56;86.15;;;81.22;;
25231;SDS011;13176;51.140;6.290;2023-12-29T09:12:23;86.43;;;81.53;;
25231;SDS011;13176;51.140;6.290;2023-12-29T09:14:49;81.18;;;76.70;;
25231;SDS011;13176;51.140;6.290;2023-12-29T09:17:15;82.03;;;77.30;;
25231;SDS011;13176;51.140;6.290;2023-12-29T09:19:42;86.15;;;81.47;;
25231;SDS011;13176;51.140;6.290;2023-12-29T09:22:12;86.95;;;82.05;;
25231;SDS011;13176;51.140;6.290;2023-12-29T09:24:38;76.75;;;72.35;;
25231;SDS011;13176;51.140;6.290;2023-12-29T09:27:05;80.88;;;76.07;;
25231;SDS011;13176;51.140;6.290;2023-12-29T09:29:32;139.60;;;131.43;;
25231;SDS011;13176;51.140;6.290;2023-12-29T09:31:58;91.18;;;86.20;;
25231;SDS011;13176;51.140;6.290;2023-12-29T09:34:24;93.78;;;88.32;;
25231;SDS011;13176;51.140;6.290;2023-12-29T09:36:51;112.20;;;105.32;;
25231;SDS011;13176;51.140;6.290;2023-12-29T09:39:18;124.70;;;117.18;;
25231;SDS011;13176;51.140;6.290;2023-12-29T09:41:46;143.50;;;134.98;;
25231;SDS011;13176;51.140;6.290;2023-12-29T09:44:16;241.40;;;225.50;;
25231;SDS011;13176;51.140;6.290;2023-12-29T09:46:49;148.40;;;139.82;;
25231;SDS011;13176;51.140;6.290;2023-12-29T09:49:17;118.22;;;111.32;;
25231;SDS011;13176;51.140;6.290;2023-12-29T09:51:45;117.05;;;110.03;;
25231;SDS011;13176;51.140;6.290;2023-12-29T09:54:12;179.25;;;168.18;;
25231;SDS011;13176;51.140;6.290;2023-12-29T09:56:41;274.63;;;256.17;;
25231;SDS011;13176;51.140;6.290;2023-12-29T09:59:11;262.58;;;243.45;;
25231;SDS011;13176;51.140;6.290;2023-12-29T10:01:39;189.85;;;176.90;;
25231;SDS011;13176;51.140;6.290;2023-12-29T10:04:07;319.75;;;296.55;;
25231;SDS011;13176;51.140;6.290;2023-12-29T10:06:34;124.22;;;116.70;;
25231;SDS011;13176;51.140;6.290;2023-12-29T10:09:03;169.05;;;158.85;;
25231;SDS011;13176;51.140;6.290;2023-12-29T10:11:34;182.70;;;170.23;;
25231;SDS011;13176;51.140;6.290;2023-12-29T10:16:52;250.85;;;231.55;;
25231;SDS011;13176;51.140;6.290;2023-12-29T10:19:27;114.30;;;107.00;;
25231;SDS011;13176;51.140;6.290;2023-12-29T10:22:06;102.53;;;95.85;;
25231;SDS011;13176;51.140;6.290;2023-12-29T10:24:40;377.77;;;346.00;;
25231;SDS011;13176;51.140;6.290;2023-12-29T10:27:09;238.57;;;221.70;;
25231;SDS011;13176;51.140;6.290;2023-12-29T10:29:36;263.20;;;243.55;;
25231;SDS011;13176;51.140;6.290;2023-12-29T10:32:04;136.45;;;128.55;;
25231;SDS011;13176;51.140;6.290;2023-12-29T10:34:30;125.90;;;118.20;;
25231;SDS011;13176;51.140;6.290;2023-12-29T10:36:58;705.63;;;298.98;;
25231;SDS011;13176;51.140;6.290;2023-12-29T10:39:27;170.50;;;157.65;;
25231;SDS011;13176;51.140;6.290;2023-12-29T10:42:04;127.50;;;120.07;;
25231;SDS011;13176;51.140;6.290;2023-12-29T10:44:33;118.65;;;111.57;;
25231;SDS011;13176;51.140;6.290;2023-12-29T10:49:37;254.48;;;232.77;;
25231;SDS011;13176;51.140;6.290;2023-12-29T10:52:11;153.02;;;144.18;;
25231;SDS011;13176;51.140;6.290;2023-12-29T10:54:39;97.15;;;91.25;;
25231;SDS011;13176;51.140;6.290;2023-12-29T10:57:07;108.25;;;101.90;;
25231;SDS011;13176;51.140;6.290;2023-12-29T10:59:33;80.70;;;75.93;;
25231;SDS011;13176;51.140;6.290;2023-12-29T11:02:03;78.22;;;73.82;;
25231;SDS011;13176;51.140;6.290;2023-12-29T11:04:32;61.80;;;57.65;;
25231;SDS011;13176;51.140;6.290;2023-12-29T11:06:59;90.68;;;84.85;;
25231;SDS011;13176;51.140;6.290;2023-12-29T11:12:02;57.15;;;53.50;;
25231;SDS011;13176;51.140;6.290;2023-12-29T11:14:30;95.78;;;89.95;;
25231;SDS011;13176;51.140;6.290;2023-12-29T11:16:57;111.55;;;102.65;;
25231;SDS011;13176;51.140;6.290;2023-12-29T11:19:27;55.70;;;51.95;;
25231;SDS011;13176;51.140;6.290;2023-12-29T11:21:54;125.15;;;117.10;;
25231;SDS011;13176;51.140;6.290;2023-12-29T11:24:22;62.88;;;58.90;;
25231;SDS011;13176;51.140;6.290;2023-12-29T11:27:03;57.53;;;54.15;;
25231;SDS011;13176;51.140;6.290;2023-12-29T11:29:31;95.22;;;88.30;;
25231;SDS011;13176;51.140;6.290;2023-12-29T11:31:57;125.35;;;117.68;;
25231;SDS011;13176;51.140;6.290;2023-12-29T11:34:30;150.13;;;117.70;;
25231;SDS011;13176;51.140;6.290;2023-12-29T11:37:26;59.07;;;55.57;;
25231;SDS011;13176;51.140;6.290;2023-12-29T11:42:54;47.55;;;44.67;;
25231;SDS011;13176;51.140;6.290;2023-12-29T11:45:29;59.10;;;54.92;;
25231;SDS011;13176;51.140;6.290;2023-12-29T11:48:03;79.07;;;74.20;;
25231;SDS011;13176;51.140;6.290;2023-12-29T11:50:34;86.55;;;81.32;;
25231;SDS011;13176;51.140;6.290;2023-12-29T11:53:07;106.82;;;100.43;;
25231;SDS011;13176;51.140;6.290;2023-12-29T11:55:38;73.55;;;69.18;;
25231;SDS011;13176;51.140;6.290;2023-12-29T11:58:24;74.70;;;70.18;;
25231;SDS011;13176;51.140;6.290;2023-12-29T12:00:55;95.72;;;89.93;;
25231;SDS011;13176;51.140;6.290;2023-12-29T12:03:26;86.38;;;81.40;;
25231;SDS011;13176;51.140;6.290;2023-12-29T12:05:55;126.03;;;118.32;;
25231;SDS011;13176;51.140;6.290;2023-12-29T12:08:33;246.35;;;225.18;;
25231;SDS011;13176;51.140;6.290;2023-12-29T12:11:48;86.20;;;80.97;;
25231;SDS011;13176;51.140;6.290;2023-12-29T12:13:54;81.97;;;77.43;;
25231;SDS011;13176;51.140;6.290;2023-12-29T12:19:13;153.48;;;141.32;;
25231;SDS011;13176;51.140;6.290;2023-12-29T12:21:40;79.65;;;74.90;;
25231;SDS011;13176;51.140;6.290;2023-12-29T12:24:07;67.43;;;63.47;;
25231;SDS011;13176;51.140;6.290;2023-12-29T12:26:34;81.00;;;76.28;;
25231;SDS011;13176;51.140;6.290;2023-12-29T12:29:01;113.47;;;106.38;;
25231;SDS011;13176;51.140;6.290;2023-12-29T12:31:27;273.13;;;246.80;;
25231;SDS011;13176;51.140;6.290;2023-12-29T12:33:57;88.55;;;83.38;;
25231;SDS011;13176;51.140;6.290;2023-12-29T12:36:24;93.50;;;88.20;;
25231;SDS011;13176;51.140;6.290;2023-12-29T12:38:53;313.67;;;291.90;;
25231;SDS011;13176;51.140;6.290;2023-12-29T12:41:20;116.28;;;109.05;;
25231;SDS011;13176;51.140;6.290;2023-12-29T12:44:34;203.75;;;188.95;;
25231;SDS011;13176;51.140;6.290;2023-12-29T12:46:40;112.65;;;106.13;;
25231;SDS011;13176;51.140;6.290;2023-12-29T12:49:15;132.00;;;124.68;;
25231;SDS011;13176;51.140;6.290;2023-12-29T12:51:43;122.80;;;115.95;;
25231;SDS011;13176;51.140;6.290;2023-12-29T12:54:10;165.23;;;155.85;;
25231;SDS011;13176;51.140;6.290;2023-12-29T12:56:36;159.23;;;149.90;;
25231;SDS011;13176;51.140;6.290;2023-12-29T12:59:03;152.18;;;142.77;;
25231;SDS011;13176;51.140;6.290;2023-12-29T13:01:34;217.35;;;202.68;;
25231;SDS011;13176;51.140;6.290;2023-12-29T13:04:03;131.90;;;123.82;;
25231;SDS011;13176;51.140;6.290;2023-12-29T13:06:34;102.45;;;96.13;;
25231;SDS011;13176;51.140;6.290;2023-12-29T13:09:05;84.25;;;79.20;;
25231;SDS011;13176;51.140;6.290;2023-12-29T13:11:37;69.57;;;65.50;;
25231;SDS011;13176;51.140;6.290;2023-12-29T13:14:07;80.45;;;75.72;;
25231;SDS011;13176;51.140;6.290;2023-12-29T13:16:35;200.45;;;184.20;;
25231;SDS011;13176;51.140;6.290;2023-12-29T13:19:14;61.00;;;57.47;;
25231;SDS011;13176;51.140;6.290;2023-12-29T13:21:47;38.00;;;35.80;;
25231;SDS011;13176;51.140;6.290;2023-12-29T13:24:16;36.75;;;34.35;;
25231;SDS011;13176;51.140;6.290;2023-12-29T13:26:44;36.25;;;34.00;;
25231;SDS011;13176;51.140;6.290;2023-12-29T13:29:12;41.92;;;39.30;;
25231;SDS011;13176;51.140;6.290;2023-12-29T13:31:41;36.67;;;34.25;;
25231;SDS011;13176;51.140;6.290;2023-12-29T13:34:11;35.83;;;33.65;;
25231;SDS011;13176;51.140;6.290;2023-12-29T13:36:53;32.03;;;29.83;;
25231;SDS011;13176;51.140;6.290;2023-12-29T13:39:31;33.77;;;31.80;;
25231;SDS011;13176;51.140;6.290;2023-12-29T13:42:17;31.60;;;29.70;;
25231;SDS011;13176;51.140;6.290;2023-12-29T13:44:46;33.90;;;31.83;;
25231;SDS011;13176;51.140;6.290;2023-12-29T13:47:14;51.75;;;47.95;;
25231;SDS011;13176;51.140;6.290;2023-12-29T13:49:41;33.90;;;31.92;;
25231;SDS011;13176;51.140;6.290;2023-12-29T13:52:08;44.83;;;41.80;;
25231;SDS011;13176;51.140;6.290;2023-12-29T13:54:41;39.13;;;36.30;;
25231;SDS011;13176;51.140;6.290;2023-12-29T13:59:35;26.13;;;24.35;;
25231;SDS011;13176;51.140;6.290;2023-12-29T14:04:43;51.15;;;47.75;;
25231;SDS011;13176;51.140;6.290;2023-12-29T14:07:11;38.45;;;36.17;;
25231;SDS011;13176;51.140;6.290;2023-12-29T14:09:39;32.40;;;30.50;;
25231;SDS011;13176;51.140;6.290;2023-12-29T14:12:06;32.83;;;31.00;;
25231;SDS011;13176;51.140;6.290;2023-12-29T14:14:32;34.08;;;31.95;;
25231;SDS011;13176;51.140;6.290;2023-12-29T14:16:59;29.70;;;28.08;;
25231;SDS011;13176;51.140;6.290;2023-12-29T14:19:25;160.50;;;148.05;;
25231;SDS011;13176;51.140;6.290;2023-12-29T14:21:55;122.03;;;110.55;;
25231;SDS011;13176;51.140;6.290;2023-12-29T14:24:24;26.73;;;25.33;;
25231;SDS011;13176;51.140;6.290;2023-12-29T14:29:21;30.65;;;29.05;;
25231;SDS011;13176;51.140;6.290;2023-12-29T14:31:48;28.70;;;27.02;;
25231;SDS011;13176;51.140;6.290;2023-12-29T14:34:17;29.17;;;27.67;;
25231;SDS011;13176;51.140;6.290;2023-12-29T14:36:48;32.60;;;30.85;;
25231;SDS011;13176;51.140;6.290;2023-12-29T14:39:15;31.38;;;29.63;;
25231;SDS011;13176;51.140;6.290;2023-12-29T14:41:42;37.75;;;35.67;;
25231;SDS011;13176;51.140;6.290;2023-12-29T14:44:12;41.45;;;38.95;;